createdAt,value
2023-05-02T00:00:37.689Z,80.46
2023-05-02T00:03:41.966Z,83.57
2023-05-02T00:06:47.061Z,85.78
2023-05-02T00:09:49.746Z,87.09
2023-05-02T00:12:52.323Z,88.99
2023-05-02T00:15:54.913Z,90.64
2023-05-02T00:18:57.553Z,92.68
2023-05-02T00:22:01.530Z,93.29
2023-05-02T00:25:04.573Z,94.73
2023-05-02T00:28:07.181Z,95.67
2023-05-02T00:31:10.384Z,96.40
2023-05-02T00:34:13.124Z,97.72
2023-05-02T00:37:17.051Z,97.27
2023-05-02T00:40:19.869Z,98.09
2023-05-02T00:43:22.449Z,96.14
2023-05-02T00:46:25.354Z,97.12
2023-05-02T00:49:28.417Z,97.89
2023-05-02T00:52:32.470Z,97.10
2023-05-02T00:55:35.662Z,97.26
2023-05-02T00:58:39.495Z,98.30
2023-05-02T01:01:53.554Z,98.82
2023-05-02T01:05:03.655Z,98.01
2023-05-02T01:08:15.108Z,99.03
2023-05-02T01:11:29.204Z,99.03
2023-05-02T01:14:36.027Z,99.58
2023-05-02T01:17:39.992Z,100.00
2023-05-02T01:20:47.496Z,100.00
2023-05-02T01:24:01.718Z,100.00
2023-05-02T01:27:19.599Z,100.00
2023-05-02T01:30:25.500Z,100.00
2023-05-02T01:33:29.520Z,100.00
2023-05-02T01:36:34.565Z,100.00
2023-05-02T01:39:39.261Z,100.00
2023-05-02T01:42:43.609Z,100.00
2023-05-02T01:45:50.971Z,100.00
2023-05-02T01:48:54.587Z,100.00
2023-05-02T01:51:58.160Z,100.00
2023-05-02T01:55:02.351Z,100.00
2023-05-02T01:58:07.429Z,100.00
2023-05-02T02:01:12.677Z,100.00
2023-05-02T02:04:17.344Z,100.00
2023-05-02T02:07:20.661Z,100.00
2023-05-02T02:10:25.891Z,100.00
2023-05-02T02:13:32.339Z,100.00
2023-05-02T02:16:39.910Z,100.00
2023-05-02T02:19:43.771Z,100.00
2023-05-02T02:22:47.928Z,100.00
2023-05-02T02:25:53.341Z,100.00
2023-05-02T02:28:56.544Z,100.00
2023-05-02T02:32:00.559Z,100.00
2023-05-02T02:35:03.979Z,100.00
2023-05-02T02:38:12.523Z,100.00
2023-05-02T02:41:28.416Z,100.00
2023-05-02T02:44:43.753Z,100.00
2023-05-02T02:47:56.208Z,100.00
2023-05-02T02:51:09.101Z,100.00
2023-05-02T02:54:26.977Z,100.00
2023-05-02T02:57:37.309Z,100.00
2023-05-02T03:00:40.708Z,100.00
2023-05-02T03:03:47.260Z,100.00
2023-05-02T03:06:50.207Z,100.00
2023-05-02T03:09:52.844Z,100.00
2023-05-02T03:12:56.150Z,100.00
2023-05-02T03:16:30.472Z,100.00
2023-05-02T03:19:34.451Z,100.00
2023-05-02T03:22:37.022Z,100.00
2023-05-02T03:25:39.725Z,100.00
2023-05-02T03:28:42.343Z,100.00
2023-05-02T03:31:45.001Z,100.00
2023-05-02T03:34:49.465Z,100.00
2023-05-02T03:37:52.069Z,100.00
2023-05-02T03:40:58.034Z,100.00
2023-05-02T03:44:00.637Z,100.00
2023-05-02T03:47:03.516Z,100.00
2023-05-02T03:50:09.224Z,100.00
2023-05-02T03:53:11.840Z,100.00
2023-05-02T03:56:20.032Z,100.00
2023-05-02T03:59:22.731Z,100.00
2023-05-02T04:02:26.235Z,100.00
2023-05-02T04:05:30.232Z,100.00
2023-05-02T04:08:33.064Z,99.14
2023-05-02T04:11:35.723Z,98.49
2023-05-02T04:14:38.311Z,97.91
2023-05-02T04:17:40.964Z,98.02
2023-05-02T04:20:45.670Z,97.00
2023-05-02T04:23:48.266Z,96.50
2023-05-02T04:26:50.866Z,97.44
2023-05-02T04:29:54.325Z,96.64
2023-05-02T04:32:57.669Z,97.05
2023-05-02T04:36:01.635Z,96.06
2023-05-02T04:39:07.478Z,95.64
2023-05-02T04:42:10.086Z,95.83
2023-05-02T04:45:12.701Z,94.40
2023-05-02T04:48:15.418Z,93.62
2023-05-02T04:51:19.412Z,91.99
2023-05-02T04:54:21.988Z,91.63
2023-05-02T04:57:24.575Z,91.73
2023-05-02T05:00:27.257Z,90.82
2023-05-02T05:03:30.843Z,90.40
2023-05-02T05:06:35.056Z,89.11
2023-05-02T05:09:37.681Z,89.70
2023-05-02T05:12:41.024Z,89.93
2023-05-02T05:15:44.421Z,87.28
2023-05-02T05:18:49.172Z,85.06
2023-05-02T05:21:53.144Z,84.93
2023-05-02T05:24:56.178Z,85.14
2023-05-02T05:28:00.339Z,84.39
2023-05-02T05:31:06.731Z,81.98
2023-05-02T05:34:09.359Z,82.71
2023-05-02T05:37:13.469Z,82.58
2023-05-02T05:40:16.838Z,80.82
2023-05-02T05:43:19.423Z,78.20
2023-05-02T05:46:22.009Z,77.42
2023-05-02T05:49:24.908Z,76.53
2023-05-02T05:52:28.937Z,76.00
2023-05-02T05:55:31.550Z,76.31
2023-05-02T05:58:34.271Z,76.60
2023-05-02T06:01:38.085Z,75.30
2023-05-02T06:04:40.835Z,75.86
2023-05-02T06:07:44.818Z,77.46
2023-05-02T06:10:47.391Z,76.78
2023-05-02T06:13:50.002Z,75.81
2023-05-02T06:16:52.583Z,74.48
2023-05-02T06:19:55.195Z,75.45
2023-05-02T06:22:59.163Z,74.55
2023-05-02T06:26:02.140Z,75.01
2023-05-02T06:29:04.753Z,74.49
2023-05-02T06:32:07.425Z,75.34
2023-05-02T06:35:10.972Z,73.92
2023-05-02T06:38:18.061Z,74.50
2023-05-02T06:41:20.721Z,73.06
2023-05-02T06:44:23.322Z,73.38
2023-05-02T06:47:26.294Z,74.44
2023-05-02T06:50:30.059Z,72.63
2023-05-02T06:53:34.181Z,70.95
2023-05-02T06:56:36.899Z,70.09
2023-05-02T06:59:39.571Z,69.65
2023-05-02T07:02:42.307Z,69.92
2023-05-02T07:05:44.985Z,70.15
2023-05-02T07:08:48.979Z,70.15
2023-05-02T07:11:51.552Z,69.85
2023-05-02T07:14:54.249Z,68.88
2023-05-02T07:17:56.884Z,69.11
2023-05-02T07:21:01.293Z,68.27
2023-05-02T07:24:05.934Z,68.11
2023-05-02T07:27:10.190Z,68.07
2023-05-02T07:30:14.048Z,68.28
2023-05-02T07:33:16.737Z,66.65
2023-05-02T07:36:19.360Z,66.48
2023-05-02T07:39:23.827Z,65.78
2023-05-02T07:42:30.234Z,65.08
2023-05-02T07:45:32.896Z,63.66
2023-05-02T07:48:35.940Z,63.55
2023-05-02T07:51:39.792Z,62.97
2023-05-02T07:54:43.754Z,61.62
2023-05-02T07:57:46.323Z,61.91
2023-05-02T08:00:48.915Z,61.23
2023-05-02T08:03:51.729Z,61.00
2023-05-02T08:06:55.796Z,59.82
2023-05-02T08:09:59.986Z,60.45
2023-05-02T08:13:02.815Z,58.80
2023-05-02T08:16:06.529Z,58.33
2023-05-02T08:19:09.456Z,58.74
2023-05-02T08:22:12.120Z,60.03
2023-05-02T08:25:16.544Z,58.34
2023-05-02T08:28:19.743Z,56.93
2023-05-02T08:31:22.553Z,57.11
2023-05-02T08:34:25.228Z,57.06
2023-05-02T08:37:27.813Z,57.26
2023-05-02T08:40:42.124Z,57.06
2023-05-02T08:43:45.510Z,56.74
2023-05-02T08:46:51.634Z,56.53
2023-05-02T08:49:56.347Z,55.45
2023-05-02T08:53:00.398Z,56.11
2023-05-02T08:56:04.779Z,56.12
2023-05-02T08:59:08.278Z,55.27
2023-05-02T09:02:23.806Z,55.23
2023-05-02T09:05:26.616Z,54.45
2023-05-02T09:08:29.229Z,54.54
2023-05-02T09:11:33.243Z,55.76
2023-05-02T09:14:36.063Z,55.56
2023-05-02T09:17:42.876Z,54.51
2023-05-02T09:20:45.662Z,54.89
2023-05-02T09:23:49.686Z,55.00
2023-05-02T09:27:01.035Z,54.94
2023-05-02T09:30:20.806Z,54.35
2023-05-02T09:33:28.305Z,53.99
2023-05-02T09:36:40.820Z,53.78
2023-05-02T09:40:07.045Z,53.22
2023-05-02T09:43:17.157Z,52.65
2023-05-02T09:46:19.964Z,52.78
2023-05-02T09:49:41.052Z,52.57
2023-05-02T09:53:02.416Z,52.58
2023-05-02T09:56:05.810Z,53.04
2023-05-02T09:59:15.707Z,49.25
2023-05-02T10:02:19.140Z,47.30
2023-05-02T10:05:22.657Z,47.03
2023-05-02T10:08:28.496Z,48.13
2023-05-02T10:11:33.562Z,47.44
2023-05-02T10:14:42.227Z,47.26
2023-05-02T10:17:50.601Z,48.29
2023-05-02T10:20:58.081Z,47.43
2023-05-02T10:24:03.349Z,49.38
2023-05-02T10:27:06.748Z,49.27
2023-05-02T10:30:13.962Z,48.79
2023-05-02T10:33:18.921Z,48.27
2023-05-02T10:36:23.658Z,48.41
2023-05-02T10:39:26.733Z,50.06
2023-05-02T10:42:31.240Z,50.75
2023-05-02T10:45:37.256Z,51.17
2023-05-02T10:48:40.046Z,51.77
2023-05-02T10:51:44.232Z,52.32
2023-05-02T10:54:47.033Z,53.97
2023-05-02T10:58:22.183Z,54.26
2023-05-02T11:01:39.802Z,52.74
2023-05-02T11:05:04.416Z,54.01
2023-05-02T11:08:32.477Z,53.12
2023-05-02T11:11:42.487Z,52.90
2023-05-02T11:14:49.870Z,50.81
2023-05-02T11:18:06.543Z,50.16
2023-05-02T11:21:28.780Z,47.02
2023-05-02T11:24:42.129Z,47.71
2023-05-02T11:27:46.247Z,48.86
2023-05-02T11:30:50.866Z,44.67
2023-05-02T11:33:58.511Z,44.55
2023-05-02T11:37:01.145Z,46.61
2023-05-02T11:40:13.862Z,47.05
2023-05-02T11:43:17.841Z,48.54
2023-05-02T11:46:21.101Z,49.50
2023-05-02T11:49:25.392Z,50.67
2023-05-02T11:52:28.029Z,51.68
2023-05-02T11:55:30.817Z,51.98
2023-05-02T11:58:34.376Z,50.65
2023-05-02T12:01:37.343Z,50.30
2023-05-02T12:04:45.404Z,50.11
2023-05-02T12:07:49.271Z,48.47
2023-05-02T12:10:53.615Z,49.20
2023-05-02T12:13:56.331Z,49.18
2023-05-02T12:17:00.118Z,50.97
2023-05-02T12:20:08.894Z,50.76
2023-05-02T12:23:12.802Z,50.17
2023-05-02T12:26:19.576Z,50.10
2023-05-02T12:29:22.272Z,51.39
2023-05-02T12:32:29.703Z,50.25
2023-05-02T12:35:34.655Z,49.88
2023-05-02T12:38:37.285Z,50.13
2023-05-02T12:41:43.587Z,48.77
2023-05-02T12:44:48.295Z,48.89
2023-05-02T12:47:51.136Z,48.46
2023-05-02T12:50:56.081Z,48.59
2023-05-02T12:53:58.727Z,49.78
2023-05-02T12:57:02.950Z,49.73
2023-05-02T13:00:06.944Z,50.58
2023-05-02T13:03:10.433Z,51.60
2023-05-02T13:06:14.440Z,52.11
2023-05-02T13:09:18.631Z,50.37
2023-05-02T13:12:21.365Z,49.05
2023-05-02T13:15:24.034Z,49.81
2023-05-02T13:18:28.000Z,49.35
2023-05-02T13:21:32.423Z,49.59
2023-05-02T13:24:35.004Z,47.81
2023-05-02T13:27:37.581Z,49.96
2023-05-02T13:30:40.355Z,47.57
2023-05-02T13:33:42.993Z,49.28
2023-05-02T13:36:47.028Z,48.84
2023-05-02T13:39:49.631Z,49.67
2023-05-02T13:42:52.272Z,49.46
2023-05-02T13:45:54.907Z,49.29
2023-05-02T13:48:57.656Z,49.85
2023-05-02T13:52:01.600Z,50.48
2023-05-02T13:55:04.807Z,50.25
2023-05-02T13:58:07.444Z,51.41
2023-05-02T14:01:10.107Z,50.71
2023-05-02T14:04:12.894Z,49.54
2023-05-02T14:07:16.910Z,50.75
2023-05-02T14:10:19.552Z,51.03
2023-05-02T14:13:22.196Z,51.38
2023-05-02T14:16:24.990Z,50.82
2023-05-02T14:19:27.689Z,50.12
2023-05-02T14:22:31.648Z,49.35
2023-05-02T14:25:34.329Z,51.14
2023-05-02T14:28:38.293Z,52.02
2023-05-02T14:31:41.755Z,52.70
2023-05-02T14:34:44.425Z,54.52
2023-05-02T14:37:48.359Z,53.51
2023-05-02T14:40:51.037Z,53.54
2023-05-02T14:43:53.767Z,53.59
2023-05-02T14:46:56.726Z,53.43
2023-05-02T14:49:59.741Z,52.39
2023-05-02T14:53:04.994Z,52.87
2023-05-02T14:56:13.273Z,52.46
2023-05-02T14:59:15.888Z,51.74
2023-05-02T15:02:18.832Z,52.91
2023-05-02T15:05:21.426Z,52.42
2023-05-02T15:08:25.377Z,53.04
2023-05-02T15:11:27.944Z,52.63
2023-05-02T15:14:30.577Z,52.21
2023-05-02T15:17:33.232Z,52.04
2023-05-02T15:20:36.488Z,50.97
2023-05-02T15:23:40.464Z,51.90
2023-05-02T15:26:43.030Z,52.25
2023-05-02T15:29:45.748Z,51.43
2023-05-02T15:32:48.373Z,51.05
2023-05-02T15:35:55.511Z,50.08
2023-05-02T15:38:59.799Z,49.45
2023-05-02T15:42:04.745Z,49.63
2023-05-02T15:45:08.533Z,48.95
2023-05-02T15:48:11.130Z,49.09
2023-05-02T15:51:13.725Z,50.38
2023-05-02T15:54:18.118Z,50.38
2023-05-02T15:57:21.202Z,51.25
2023-05-02T16:00:24.116Z,50.95
2023-05-02T16:03:26.922Z,51.02
2023-05-02T16:06:30.928Z,50.46
2023-05-02T16:09:34.979Z,48.83
2023-05-02T16:12:37.577Z,48.51
2023-05-02T16:15:40.381Z,48.14
2023-05-02T16:18:43.016Z,49.63
2023-05-02T16:21:45.886Z,49.89
2023-05-02T16:24:49.888Z,50.55
2023-05-02T16:27:52.567Z,51.25
2023-05-02T16:30:55.475Z,51.73
2023-05-02T16:33:59.032Z,50.02
2023-05-02T16:37:03.240Z,49.92
2023-05-02T16:40:09.092Z,50.34
2023-05-02T16:43:11.827Z,50.83
2023-05-02T16:46:14.469Z,51.45
2023-05-02T16:49:17.100Z,50.04
2023-05-02T16:52:19.691Z,50.67
2023-05-02T16:55:23.909Z,50.01
2023-05-02T16:58:28.734Z,50.88
2023-05-02T17:01:31.515Z,50.84
2023-05-02T17:04:34.247Z,50.53
2023-05-02T17:07:37.045Z,50.39
2023-05-02T17:10:40.997Z,51.05
2023-05-02T17:13:43.816Z,50.97
2023-05-02T17:16:46.451Z,50.98
2023-05-02T17:19:49.175Z,51.92
2023-05-02T17:22:52.557Z,52.19
2023-05-02T17:25:56.856Z,51.73
2023-05-02T17:28:59.554Z,51.72
2023-05-02T17:32:02.236Z,51.35
2023-05-02T17:35:05.372Z,51.09
2023-05-02T17:38:08.035Z,51.36
2023-05-02T17:41:12.294Z,51.61
2023-05-02T17:44:15.811Z,51.63
2023-05-02T17:47:19.763Z,51.53
2023-05-02T17:50:22.633Z,50.77
2023-05-02T17:53:26.402Z,50.81
2023-05-02T17:56:30.424Z,50.74
2023-05-02T17:59:33.052Z,51.10
2023-05-02T18:02:37.900Z,52.04
2023-05-02T18:05:43.965Z,52.20
2023-05-02T18:08:47.112Z,52.96
2023-05-02T18:11:52.076Z,51.55
2023-05-02T18:14:54.856Z,53.23
2023-05-02T18:17:57.660Z,52.68
2023-05-02T18:21:00.667Z,52.62
2023-05-02T18:24:03.478Z,52.95
2023-05-02T18:27:07.980Z,52.75
2023-05-02T18:30:11.376Z,53.38
2023-05-02T18:33:14.069Z,52.88
2023-05-02T18:36:19.389Z,53.03
2023-05-02T18:39:22.091Z,51.76
2023-05-02T18:42:26.347Z,52.45
2023-05-02T18:45:29.292Z,52.99
2023-05-02T18:48:32.329Z,53.07
2023-05-02T18:51:35.056Z,53.32
2023-05-02T18:54:37.697Z,53.57
2023-05-02T18:57:44.312Z,54.35
2023-05-02T19:00:46.943Z,54.81
2023-05-02T19:03:49.829Z,54.12
2023-05-02T19:06:52.585Z,54.80
2023-05-02T19:09:55.341Z,53.92
2023-05-02T19:12:59.302Z,54.62
2023-05-02T19:16:02.043Z,53.75
2023-05-02T19:19:04.846Z,53.87
2023-05-02T19:22:07.493Z,53.63
2023-05-02T19:25:12.784Z,54.42
2023-05-02T19:28:17.160Z,53.30
2023-05-02T19:31:21.689Z,53.77
2023-05-02T19:34:24.313Z,53.36
2023-05-02T19:37:26.867Z,54.39
2023-05-02T19:40:29.509Z,54.06
2023-05-02T19:43:34.511Z,54.81
2023-05-02T19:46:37.210Z,55.60
2023-05-02T19:49:39.892Z,55.82
2023-05-02T19:52:44.408Z,56.03
2023-05-02T19:55:47.485Z,56.70
2023-05-02T19:58:51.441Z,56.60
2023-05-02T20:01:54.036Z,56.80
2023-05-02T20:04:56.633Z,56.66
2023-05-02T20:07:59.481Z,56.95
2023-05-02T20:11:02.174Z,57.48
2023-05-02T20:14:06.130Z,57.99
2023-05-02T20:17:08.963Z,58.65
2023-05-02T20:20:12.659Z,60.31
2023-05-02T20:23:15.967Z,60.05
2023-05-02T20:26:18.659Z,60.69
2023-05-02T20:29:22.626Z,60.84
2023-05-02T20:32:25.314Z,61.80
2023-05-02T20:35:29.572Z,62.25
2023-05-02T20:38:32.171Z,62.28
2023-05-02T20:41:35.928Z,62.59
2023-05-02T20:44:39.903Z,62.91
2023-05-02T20:47:42.509Z,62.60
2023-05-02T20:50:53.146Z,62.76
2023-05-02T20:53:55.797Z,62.87
2023-05-02T20:56:58.395Z,62.72
2023-05-02T21:00:03.661Z,63.44
2023-05-02T21:03:06.516Z,62.50
2023-05-02T21:06:09.249Z,62.13
2023-05-02T21:09:11.889Z,63.09
2023-05-02T21:12:14.462Z,62.97
2023-05-02T21:15:18.491Z,63.22
2023-05-02T21:18:22.616Z,63.54
2023-05-02T21:21:25.216Z,63.96
2023-05-02T21:24:27.842Z,63.79
2023-05-02T21:27:30.583Z,65.09
2023-05-02T21:30:34.553Z,64.64
2023-05-02T21:33:37.143Z,65.71
2023-05-02T21:36:39.710Z,65.92
2023-05-02T21:39:42.282Z,66.99
2023-05-02T21:42:44.880Z,67.80
2023-05-02T21:45:50.214Z,68.37
2023-05-02T21:48:52.811Z,68.41
2023-05-02T21:51:55.382Z,67.86
2023-05-02T21:54:58.676Z,69.49
2023-05-02T21:58:01.278Z,70.16
2023-05-02T22:01:05.364Z,70.64
2023-05-02T22:04:08.010Z,71.10
2023-05-02T22:07:10.608Z,70.87
2023-05-02T22:10:13.201Z,70.84
2023-05-02T22:13:16.422Z,71.72
2023-05-02T22:16:21.386Z,72.26
2023-05-02T22:19:24.246Z,72.97
2023-05-02T22:22:27.058Z,73.32
2023-05-02T22:25:29.661Z,73.90
2023-05-02T22:28:32.250Z,74.10
2023-05-02T22:31:36.986Z,74.47
2023-05-02T22:34:39.565Z,75.40
2023-05-02T22:37:42.155Z,75.14
2023-05-02T22:40:44.707Z,75.78
2023-05-02T22:43:48.359Z,75.74
2023-05-02T22:46:52.862Z,75.41
2023-05-02T22:49:56.710Z,77.05
2023-05-02T22:52:59.677Z,76.04
2023-05-02T22:56:02.989Z,77.18
2023-05-02T22:59:05.625Z,77.63
2023-05-02T23:02:11.391Z,77.18
2023-05-02T23:05:14.178Z,77.10
2023-05-02T23:08:16.801Z,78.12
2023-05-02T23:11:19.386Z,79.18
2023-05-02T23:14:22.905Z,78.74
2023-05-02T23:17:26.885Z,79.72
2023-05-02T23:20:29.537Z,78.60
2023-05-02T23:23:32.232Z,78.96
2023-05-02T23:26:34.815Z,80.29
2023-05-02T23:29:37.481Z,79.56
2023-05-02T23:32:41.510Z,80.58
2023-05-02T23:35:44.160Z,80.25
2023-05-02T23:38:46.878Z,80.42
2023-05-02T23:41:49.542Z,81.12
2023-05-02T23:44:53.658Z,82.36
2023-05-02T23:47:57.651Z,81.84
2023-05-02T23:51:00.484Z,82.54
2023-05-02T23:54:03.060Z,82.56
2023-05-02T23:57:05.865Z,82.94
